createdAt,value
2019-02-21T05:01:52.511Z,44.93
2019-02-21T05:04:27.684Z,45.20
2019-02-21T05:07:02.827Z,48.23
2019-02-21T05:09:27.397Z,43.77
2019-02-21T05:11:52.743Z,45.67
2019-02-21T05:14:29.471Z,45.63
2019-02-21T06:01:45.459Z,43.20
2019-02-21T06:04:39.955Z,44.80
2019-02-21T06:07:40.298Z,39.73
2019-02-21T06:10:34.642Z,43.03
2019-02-21T06:13:29.852Z,43.70
2019-02-21T07:01:30.136Z,42.23
2019-02-21T07:03:52.671Z,47.43
2019-02-21T07:06:15.149Z,47.77
2019-02-21T07:08:39.939Z,46.47
2019-02-21T07:11:06.110Z,54.13
2019-02-21T07:13:27.061Z,50.20
2019-02-21T08:02:37.929Z,50.80
2019-02-21T08:05:02.071Z,53.23
2019-02-21T08:07:26.475Z,49.50
2019-02-21T08:09:49.121Z,48.67
2019-02-21T08:12:11.639Z,46.93
2019-02-21T08:14:34.178Z,51.20
2019-02-21T09:00:41.458Z,34.87
2019-02-21T09:03:04.211Z,37.40
2019-02-21T09:05:26.641Z,33.77
2019-02-21T09:07:49.202Z,37.73
2019-02-21T09:10:12.074Z,36.73
2019-02-21T09:12:35.698Z,41.70
2019-02-21T09:14:58.148Z,32.73
2019-02-21T10:02:27.771Z,40.07
2019-02-21T10:04:50.231Z,31.90
2019-02-21T10:07:12.663Z,31.90
2019-02-21T10:09:35.126Z,33.70
2019-02-21T10:11:59.169Z,37.13
2019-02-21T10:14:21.804Z,38.20
2019-02-21T11:07:13.932Z,25.20
2019-02-21T11:09:36.382Z,22.87
2019-02-21T11:11:58.851Z,22.60
2019-02-21T11:14:22.486Z,22.13
2019-02-21T12:06:17.206Z,13.70
2019-02-21T12:08:40.025Z,19.17
2019-02-21T12:11:02.944Z,14.80
2019-02-21T12:13:25.928Z,16.20
2019-02-21T13:07:04.301Z,11.55
2019-02-21T13:09:26.861Z,12.85
2019-02-21T13:11:49.326Z,13.55
2019-02-21T13:14:11.891Z,13.13
2019-02-21T14:01:52.127Z,10.60
2019-02-21T14:04:27.300Z,13.07
2019-02-21T14:07:02.720Z,12.60
2019-02-21T14:09:38.096Z,12.80
2019-02-21T14:12:13.123Z,12.27
2019-02-21T14:14:48.261Z,10.83
2019-02-21T15:02:45.561Z,20.53
2019-02-21T15:05:20.632Z,21.77
2019-02-21T15:07:55.863Z,30.03
2019-02-21T15:10:31.920Z,21.90
2019-02-21T15:13:07.007Z,25.43
2019-02-21T16:02:48.711Z,25.90
2019-02-21T16:05:23.830Z,30.17
2019-02-21T16:07:58.689Z,25.90
2019-02-21T16:10:33.711Z,25.13
2019-02-21T16:12:56.890Z,29.50
2019-02-21T17:01:26.003Z,28.03
2019-02-21T17:03:48.543Z,28.37
2019-02-21T17:06:30.491Z,34.93
2019-02-21T17:09:05.158Z,29.63
2019-02-21T17:11:42.347Z,32.60
2019-02-21T17:14:17.636Z,37.90
2019-02-21T18:01:51.243Z,47.23
2019-02-21T18:04:26.162Z,47.97
2019-02-21T18:07:01.297Z,44.20
2019-02-21T18:09:36.410Z,47.30
2019-02-21T18:12:11.552Z,50.30
2019-02-21T18:41:22.108Z,41.33
2019-02-21T18:56:19.708Z,38.33
2019-02-21T18:58:42.699Z,41.73
2019-02-21T19:01:05.704Z,39.93
2019-02-21T19:03:29.167Z,43.80
2019-02-21T19:05:52.126Z,35.03
2019-02-21T19:08:14.897Z,41.87
2019-02-21T19:10:37.481Z,43.77
2019-02-21T19:13:00.204Z,36.67
2019-02-21T20:01:43.261Z,59.77
2019-02-21T20:04:18.223Z,64.53
2019-02-21T20:06:53.432Z,65.17
2019-02-21T20:09:28.687Z,77.33
2019-02-21T20:12:04.147Z,67.97
2019-02-21T20:14:39.277Z,74.47
2019-02-21T21:00:19.145Z,48.23
2019-02-21T21:02:43.320Z,59.13
2019-02-21T21:05:05.981Z,52.13
2019-02-21T21:07:30.544Z,58.10
2019-02-21T21:09:53.542Z,51.40
2019-02-21T21:12:28.652Z,48.63
